Time;durP1;ratioP1;P1;durP2;ratioP2;P2;SDS_P1;SDS_P2;PMS_P1;PMS_P2;Temp;Humidity;BMP_temperature;BMP_pressure;BME280_temperature;BME280_humidity;BME280_pressure;Samples;Min_cycle;Max_cycle;Signal;HPM_P1;HPM_P2
2022/12/31 00:00:10;;;;;;;24.90;17.80;;;;;;;4.44;72.16;101162.45;1792125;80;21536;-70
2022/12/31 00:02:39;;;;;;;26.97;17.55;;;;;;;4.44;72.17;101163.77;1792063;80;21146;-70
2022/12/31 00:05:08;;;;;;;24.15;17.70;;;;;;;4.45;72.23;101164.07;1791694;80;21540;-70
2022/12/31 00:07:35;;;;;;;26.33;18.23;;;;;;;4.45;72.31;101157.45;1791660;80;22147;-70
2022/12/31 00:10:03;;;;;;;27.32;18.45;;;;;;;4.45;72.33;101161.94;1791689;80;21466;-70
2022/12/31 00:12:30;;;;;;;24.98;17.75;;;;;;;4.43;72.28;101164.77;1791837;80;21110;-70
2022/12/31 00:14:57;;;;;;;25.12;17.55;;;;;;;4.42;72.25;101167.62;1791811;80;21038;-70
2022/12/31 00:17:23;;;;;;;26.77;18.00;;;;;;;4.39;72.22;101164.06;1792088;80;21027;-70
2022/12/31 00:19:50;;;;;;;26.07;18.02;;;;;;;4.37;72.09;101165.56;1791917;80;21160;-70
2022/12/31 00:22:17;;;;;;;27.35;18.67;;;;;;;4.37;71.94;101166.08;1791642;80;21522;-70
2022/12/31 00:24:44;;;;;;;27.77;18.42;;;;;;;4.37;71.77;101168.73;1791360;80;20963;-70
2022/12/31 00:27:10;;;;;;;29.02;19.15;;;;;;;4.35;71.59;101168.94;1792094;80;21196;-70
2022/12/31 00:29:37;;;;;;;25.02;18.48;;;;;;;4.34;71.48;101180.52;1791916;80;21011;-70
2022/12/31 00:32:05;;;;;;;26.40;18.35;;;;;;;4.30;71.39;101181.94;1791887;80;21297;-71
2022/12/31 00:34:32;;;;;;;26.90;18.73;;;;;;;4.30;71.28;101186.41;1791818;80;21038;-70
2022/12/31 00:36:59;;;;;;;26.00;18.15;;;;;;;4.28;71.10;101189.27;1792050;80;21588;-70
2022/12/31 00:39:26;;;;;;;24.27;16.45;;;;;;;4.23;70.86;101191.17;1791923;80;21082;-70
2022/12/31 00:41:52;;;;;;;23.42;17.07;;;;;;;4.16;70.71;101189.53;1782435;80;21051;-70
2022/12/31 00:44:19;;;;;;;22.93;16.27;;;;;;;4.03;70.78;101189.49;1780536;80;21103;-70
2022/12/31 00:46:47;;;;;;;26.37;17.98;;;;;;;3.91;70.88;101187.91;1780581;80;20964;-70
2022/12/31 00:49:14;;;;;;;26.97;18.80;;;;;;;3.84;71.05;101187.07;1780515;80;20980;-70
2022/12/31 00:51:40;;;;;;;26.17;18.40;;;;;;;3.82;71.16;101189.08;1780703;80;21078;-70
2022/12/31 00:54:08;;;;;;;29.20;18.73;;;;;;;3.78;71.21;101186.53;1780547;80;21053;-70
2022/12/31 00:56:36;;;;;;;27.22;17.75;;;;;;;3.74;71.31;101190.08;1778394;80;21102;-70
2022/12/31 00:59:03;;;;;;;26.97;18.70;;;;;;;3.73;71.37;101193.73;1780691;80;21106;-70
2022/12/31 01:01:33;;;;;;;30.52;18.92;;;;;;;3.71;71.49;101195.75;1780549;80;21015;-70
2022/12/31 01:04:05;;;;;;;27.10;18.62;;;;;;;3.69;71.62;101201.75;1780635;80;21019;-70
2022/12/31 01:06:33;;;;;;;30.00;18.80;;;;;;;3.69;71.65;101208.36;1780517;80;21020;-70
2022/12/31 01:08:59;;;;;;;28.47;18.30;;;;;;;3.68;71.63;101212.80;1780656;80;21550;-71
2022/12/31 01:11:30;;;;;;;29.55;18.90;;;;;;;3.66;71.60;101210.06;1780697;80;20984;-70
2022/12/31 01:14:03;;;;;;;26.90;18.27;;;;;;;3.63;71.64;101215.73;1746477;80;21059;-70
2022/12/31 01:16:34;;;;;;;27.42;18.40;;;;;;;3.60;71.69;101220.09;1737432;82;21593;-69
2022/12/31 01:19:03;;;;;;;28.40;19.05;;;;;;;3.56;71.74;101218.34;1709129;82;21047;-70
2022/12/31 01:21:30;;;;;;;27.15;18.17;;;;;;;3.53;71.74;101218.22;1738585;82;21151;-69
2022/12/31 01:23:58;;;;;;;27.52;18.62;;;;;;;3.49;71.72;101210.89;1738194;82;21038;-69
2022/12/31 01:26:25;;;;;;;28.05;17.98;;;;;;;3.45;71.72;101213.07;1738461;82;21198;-69
2022/12/31 01:28:52;;;;;;;27.20;17.52;;;;;;;3.43;71.73;101214.30;1738386;82;21082;-70
2022/12/31 01:31:20;;;;;;;24.55;16.97;;;;;;;3.40;71.99;101214.17;1738144;82;21057;-70
2022/12/31 01:33:47;;;;;;;27.15;18.35;;;;;;;3.42;72.25;101216.61;1738365;82;21379;-70
2022/12/31 01:36:26;;;;;;;29.30;18.55;;;;;;;3.44;72.44;101221.20;1738595;82;20972;-70
2022/12/31 01:38:55;;;;;;;27.22;18.70;;;;;;;3.46;72.53;101223.97;1733313;82;21026;-71
2022/12/31 01:41:26;;;;;;;23.85;17.70;;;;;;;3.51;72.51;101231.30;1708533;84;21002;-70
2022/12/31 01:43:56;;;;;;;27.02;17.87;;;;;;;3.51;72.39;101234.75;1708373;84;21596;-70
2022/12/31 01:46:34;;;;;;;25.62;18.00;;;;;;;3.47;72.25;101227.42;1708477;84;21801;-70
2022/12/31 01:49:06;;;;;;;27.42;18.12;;;;;;;3.43;72.18;101226.19;1723918;82;21027;-70
2022/12/31 01:51:32;;;;;;;24.83;17.40;;;;;;;3.42;72.08;101221.89;1726998;82;21030;-70
2022/12/31 01:53:59;;;;;;;26.57;17.12;;;;;;;3.40;72.07;101223.92;1738454;82;21590;-70
2022/12/31 01:56:26;;;;;;;25.90;18.20;;;;;;;3.38;72.01;101222.78;1710996;82;21015;-70
2022/12/31 01:58:54;;;;;;;26.75;18.35;;;;;;;3.39;71.87;101217.83;1751394;82;21232;-70
2022/12/31 02:01:25;;;;;;;23.92;16.37;;;;;;;3.35;71.55;101226.31;1751753;82;21035;-70
2022/12/31 02:03:52;;;;;;;28.55;16.70;;;;;;;3.25;71.37;101226.65;1751806;82;21004;-70
2022/12/31 02:06:23;;;;;;;28.23;18.45;;;;;;;3.17;71.44;101218.89;1743019;82;21126;-71
2022/12/31 02:08:49;;;;;;;30.17;19.55;;;;;;;3.08;71.52;101228.76;1738029;82;21074;-70
2022/12/31 02:11:22;;;;;;;26.82;18.67;;;;;;;3.04;71.57;101230.97;1738278;82;21585;-70
2022/12/31 02:13:49;;;;;;;29.18;19.65;;;;;;;3.03;71.56;101234.63;1737842;82;21026;-71
2022/12/31 02:16:21;;;;;;;28.45;19.60;;;;;;;3.05;71.50;101235.73;1738330;82;21134;-71
2022/12/31 02:18:55;;;;;;;28.10;19.50;;;;;;;3.02;71.24;101235.61;1737355;82;21050;-71
2022/12/31 02:21:34;;;;;;;27.77;19.67;;;;;;;2.97;70.88;101239.84;1738620;82;21062;-69
2022/12/31 02:24:40;;;;;;;25.45;18.55;;;;;;;2.89;70.50;101240.77;1737687;82;21281;-70
2022/12/31 02:27:11;;;;;;;26.30;18.07;;;;;;;2.70;70.00;101247.98;1738097;82;21531;-69
2022/12/31 02:30:03;;;;;;;23.98;17.20;;;;;;;2.45;69.69;101257.58;1738213;82;20979;-70
2022/12/31 02:33:09;;;;;;;25.80;17.85;;;;;;;2.33;69.54;101261.70;1738291;82;21007;-70
2022/12/31 02:35:47;;;;;;;24.75;17.85;;;;;;;2.24;69.48;101262.33;1738290;82;21605;-70
2022/12/31 02:38:29;;;;;;;22.45;17.10;;;;;;;2.18;69.42;101263.56;1738569;82;21787;-70
2022/12/31 02:40:57;;;;;;;25.72;17.80;;;;;;;2.13;69.31;101264.60;1738170;82;21141;-70
2022/12/31 02:43:23;;;;;;;23.52;17.80;;;;;;;2.07;69.27;101264.35;1738923;82;21020;-70
2022/12/31 02:46:14;;;;;;;24.37;17.17;;;;;;;2.05;69.27;101270.29;1738431;82;21018;-70
2022/12/31 02:49:03;;;;;;;23.05;17.07;;;;;;;1.98;69.14;101267.27;1738441;82;21046;-70
2022/12/31 02:51:44;;;;;;;23.90;16.95;;;;;;;1.92;69.07;101264.85;1738575;82;21158;-70
2022/12/31 02:54:16;;;;;;;23.55;16.70;;;;;;;1.88;69.00;101267.03;1737454;82;21061;-70
2022/12/31 02:57:06;;;;;;;24.00;17.02;;;;;;;1.84;68.99;101267.56;1738912;81;20984;-71
2022/12/31 03:02:27;;;;;;;25.40;17.75;;;;;;;1.75;68.79;101273.94;1738392;82;21117;-70
2022/12/31 03:04:55;;;;;;;27.22;18.05;;;;;;;1.72;68.73;101273.80;1709265;82;21243;-70
2022/12/31 03:07:28;;;;;;;24.00;17.75;;;;;;;1.69;68.75;101273.34;1738613;82;20999;-70
2022/12/31 03:09:55;;;;;;;27.32;18.75;;;;;;;1.69;68.81;101264.13;1738143;82;21490;-71
2022/12/31 03:12:45;;;;;;;24.40;17.87;;;;;;;1.68;68.84;101269.90;1738283;81;21026;-71
2022/12/31 03:15:22;;;;;;;24.70;17.65;;;;;;;1.71;68.86;101276.59;1738218;82;20991;-71
2022/12/31 03:17:59;;;;;;;24.02;17.37;;;;;;;1.70;68.78;101267.87;1738225;82;21084;-71
2022/12/31 03:23:23;;;;;;;24.20;16.77;;;;;;;1.61;68.49;101276.39;1738295;82;21050;-71
2022/12/31 03:25:50;;;;;;;22.62;16.25;;;;;;;1.42;68.27;101268.19;1738539;82;21099;-71
2022/12/31 03:28:18;;;;;;;23.70;17.52;;;;;;;1.24;68.30;101267.19;1738564;82;21078;-71
2022/12/31 03:30:48;;;;;;;26.02;18.95;;;;;;;1.14;68.37;101282.71;1737941;82;21242;-71
2022/12/31 03:33:15;;;;;;;25.60;17.98;;;;;;;1.10;68.37;101277.99;1738290;82;21283;-71
2022/12/31 03:35:43;;;;;;;26.77;18.32;;;;;;;1.05;68.27;101282.95;1738298;82;21513;-72
2022/12/31 03:38:10;;;;;;;27.22;18.42;;;;;;;0.97;68.22;101289.10;1738520;82;21520;-72
2022/12/31 03:40:44;;;;;;;24.60;17.07;;;;;;;0.94;68.38;101294.21;1738416;82;21006;-72
2022/12/31 03:43:10;;;;;;;24.27;17.12;;;;;;;0.98;68.43;101289.92;1738771;82;21176;-71
2022/12/31 03:45:37;;;;;;;25.50;18.17;;;;;;;1.02;68.49;101295.14;1738374;82;21034;-71
2022/12/31 03:48:05;;;;;;;26.77;18.48;;;;;;;1.03;68.43;101297.61;1738568;82;21011;-71
2022/12/31 03:50:32;;;;;;;27.82;18.95;;;;;;;1.02;68.32;101294.67;1738681;82;21027;-71
2022/12/31 03:52:59;;;;;;;25.72;17.50;;;;;;;1.02;68.27;101295.98;1738406;82;21010;-71
2022/12/31 03:55:26;;;;;;;28.90;18.52;;;;;;;1.00;68.21;101286.62;1738523;82;21254;-71
2022/12/31 03:57:53;;;;;;;27.67;17.62;;;;;;;1.01;68.18;101285.62;1740032;81;20971;-71
2022/12/31 04:00:21;;;;;;;25.00;18.10;;;;;;;1.03;68.19;101288.91;1739850;82;21074;-71
2022/12/31 04:02:47;;;;;;;23.38;16.70;;;;;;;1.02;68.16;101294.67;1740072;82;21019;-71
2022/12/31 04:05:16;;;;;;;24.18;17.05;;;;;;;1.04;68.18;101295.29;1739054;82;20994;-71
2022/12/31 04:07:42;;;;;;;26.37;17.75;;;;;;;1.05;68.16;101288.21;1738672;82;21592;-72
2022/12/31 04:10:11;;;;;;;26.75;18.30;;;;;;;1.06;68.09;101292.00;1738238;82;20935;-72
2022/12/31 04:12:37;;;;;;;26.40;18.02;;;;;;;1.03;68.03;101298.92;1738791;82;21357;-71
2022/12/31 04:15:06;;;;;;;27.02;18.05;;;;;;;1.03;67.99;101302.06;1738573;82;21066;-71
2022/12/31 04:17:33;;;;;;;26.07;18.30;;;;;;;1.01;67.87;101304.03;1738839;82;21485;-73
2022/12/31 04:19:59;;;;;;;28.95;17.80;;;;;;;1.01;67.82;101299.59;1738429;82;21100;-71
2022/12/31 04:22:26;;;;;;;24.90;17.52;;;;;;;1.02;67.80;101301.72;1738714;82;20987;-71
2022/12/31 04:24:53;;;;;;;24.70;17.62;;;;;;;1.02;67.70;101301.72;1738574;82;21463;-71
2022/12/31 04:27:20;;;;;;;25.35;17.12;;;;;;;1.02;67.66;101310.45;1738961;82;21564;-71
2022/12/31 04:29:46;;;;;;;26.35;17.00;;;;;;;1.01;67.60;101310.11;1738607;82;20991;-71
2022/12/31 04:32:12;;;;;;;25.00;17.23;;;;;;;1.03;67.65;101313.39;1738664;82;21155;-71
2022/12/31 04:34:40;;;;;;;27.02;17.45;;;;;;;1.05;67.73;101316.65;1738566;82;21010;-72
2022/12/31 04:37:06;;;;;;;23.15;16.70;;;;;;;1.10;67.75;101318.77;1738854;82;21549;-72
2022/12/31 04:39:33;;;;;;;24.77;17.37;;;;;;;1.10;67.70;101314.83;1738492;82;21011;-73
2022/12/31 04:42:00;;;;;;;22.80;16.23;;;;;;;1.10;67.67;101322.72;1738745;82;21015;-73
2022/12/31 04:44:27;;;;;;;24.80;16.82;;;;;;;1.10;67.68;101322.22;1738392;82;21569;-72
2022/12/31 04:46:54;;;;;;;26.07;17.05;;;;;;;1.13;67.75;101320.55;1738847;82;20983;-72
2022/12/31 04:49:20;;;;;;;24.40;17.25;;;;;;;1.16;67.83;101324.66;1738748;82;21018;-72
2022/12/31 04:51:47;;;;;;;26.42;18.00;;;;;;;1.22;67.85;101331.00;1738985;82;21082;-72
2022/12/31 04:54:14;;;;;;;22.55;16.25;;;;;;;1.25;67.90;101334.13;1738604;82;21066;-72
2022/12/31 04:56:40;;;;;;;23.85;16.50;;;;;;;1.26;68.00;101334.94;1739221;82;21151;-72
2022/12/31 04:59:09;;;;;;;26.77;17.77;;;;;;;1.31;68.18;101338.66;1740190;82;21011;-72
2022/12/31 05:01:35;;;;;;;27.80;18.67;;;;;;;1.37;68.07;101337.14;1740212;82;21192;-72
2022/12/31 05:04:03;;;;;;;28.15;17.82;;;;;;;1.37;67.89;101338.45;1740047;82;21106;-72
2022/12/31 05:06:30;;;;;;;28.87;18.75;;;;;;;1.37;67.83;101347.17;1740320;82;21110;-73
2022/12/31 05:08:57;;;;;;;28.05;19.23;;;;;;;1.54;67.55;101339.13;1740158;82;22159;-72
2022/12/31 05:11:24;;;;;;;29.98;19.62;;;;;;;1.45;67.45;101339.72;1740332;82;21441;-72
2022/12/31 05:13:50;;;;;;;29.60;20.77;;;;;;;1.38;67.47;101346.66;1738510;81;21098;-72
2022/12/31 05:16:17;;;;;;;33.92;20.77;;;;;;;1.34;67.43;101343.57;1738330;82;21101;-74
2022/12/31 05:18:45;;;;;;;25.45;17.85;;;;;;;1.33;67.38;101347.71;1738379;82;21070;-73
2022/12/31 05:21:16;;;;;;;34.15;21.48;;;;;;;1.32;67.43;101357.92;1738321;82;21830;-73
2022/12/31 05:23:43;;;;;;;32.48;19.87;;;;;;;1.34;67.47;101362.50;1738687;82;22865;-73
2022/12/31 05:26:10;;;;;;;32.38;20.97;;;;;;;1.33;67.37;101370.08;1738559;82;20975;-73
2022/12/31 05:28:36;;;;;;;32.83;20.77;;;;;;;1.30;67.29;101368.61;1738619;82;20968;-72
2022/12/31 05:31:03;;;;;;;31.25;20.00;;;;;;;1.26;67.16;101377.86;1738284;82;21172;-73
2022/12/31 05:33:30;;;;;;;31.37;20.05;;;;;;;1.24;66.77;101380.34;1738349;82;21193;-72
2022/12/31 05:35:57;;;;;;;32.40;20.20;;;;;;;1.10;66.99;101374.84;1738350;82;21121;-73
2022/12/31 05:38:25;;;;;;;34.50;21.42;;;;;;;1.07;67.02;101375.19;1738671;82;21529;-73
2022/12/31 05:41:03;;;;;;;36.42;22.85;;;;;;;1.02;66.87;101372.74;1738665;82;21501;-73
2022/12/31 05:43:30;;;;;;;37.08;22.93;;;;;;;0.88;66.80;101373.81;1738808;82;21054;-73
2022/12/31 05:46:01;;;;;;;30.17;19.82;;;;;;;0.74;66.87;101374.55;1738619;82;21778;-72
2022/12/31 05:48:28;;;;;;;27.90;18.95;;;;;;;0.63;66.88;101374.45;1738588;82;20967;-73
2022/12/31 05:50:55;;;;;;;27.40;18.15;;;;;;;0.50;66.94;101379.44;1738486;82;20995;-72
2022/12/31 05:53:22;;;;;;;28.27;18.77;;;;;;;0.39;66.92;101379.78;1738994;82;21024;-73
2022/12/31 05:55:48;;;;;;;27.40;18.17;;;;;;;0.13;67.28;101376.08;1738431;82;21457;-73
2022/12/31 05:58:15;;;;;;;26.60;18.10;;;;;;;0.14;67.25;101373.30;1738984;82;21541;-73
2022/12/31 06:00:42;;;;;;;26.77;17.10;;;;;;;0.10;67.26;101372.47;1738445;82;20987;-73
2022/12/31 06:03:09;;;;;;;25.68;16.97;;;;;;;0.10;67.37;101373.32;1738605;82;21652;-72
2022/12/31 06:05:41;;;;;;;26.62;17.92;;;;;;;0.13;67.45;101378.23;1738844;82;21036;-73
2022/12/31 06:08:09;;;;;;;26.87;16.65;;;;;;;0.10;67.50;101379.89;1738762;82;21031;-72
2022/12/31 06:10:36;;;;;;;26.57;17.42;;;;;;;0.14;67.73;101373.30;1738656;82;21125;-73
2022/12/31 06:13:03;;;;;;;24.98;17.15;;;;;;;0.18;67.73;101370.66;1738620;82;21069;-72
2022/12/31 06:15:29;;;;;;;22.70;14.83;;;;;;;0.19;67.74;101367.53;1738779;82;21462;-73
2022/12/31 06:17:56;;;;;;;23.05;15.63;;;;;;;0.20;67.77;101370.51;1738723;82;21019;-73
2022/12/31 06:20:22;;;;;;;24.80;15.98;;;;;;;0.18;67.78;101376.41;1738588;82;21030;-74
2022/12/31 06:22:49;;;;;;;26.37;16.40;;;;;;;0.22;67.89;101381.64;1738590;82;21125;-73
2022/12/31 06:25:17;;;;;;;22.52;15.40;;;;;;;0.30;67.99;101375.07;1738522;82;20971;-73
2022/12/31 06:27:44;;;;;;;23.70;15.18;;;;;;;0.41;68.02;101377.81;1738617;82;21632;-73
2022/12/31 06:30:12;;;;;;;19.95;14.30;;;;;;;0.51;68.02;101375.80;1738592;82;21057;-73
2022/12/31 06:32:39;;;;;;;19.27;13.98;;;;;;;0.64;68.02;101390.53;1738602;82;21137;-72
2022/12/31 06:35:07;;;;;;;19.25;13.80;;;;;;;0.70;67.93;101384.59;1709378;84;21848;-73
2022/12/31 06:37:34;;;;;;;19.48;14.07;;;;;;;0.74;67.90;101382.94;1719671;82;21003;-72
2022/12/31 06:40:01;;;;;;;18.17;13.22;;;;;;;0.70;67.79;101379.34;1738442;82;20968;-72
2022/12/31 06:42:32;;;;;;;17.73;12.82;;;;;;;0.59;67.69;101386.77;1738646;82;20968;-72
2022/12/31 06:44:59;;;;;;;19.37;14.00;;;;;;;0.52;67.81;101384.00;1738470;82;21074;-73
2022/12/31 06:47:25;;;;;;;22.62;15.95;;;;;;;0.50;67.77;101386.00;1738790;82;21778;-73
2022/12/31 06:49:53;;;;;;;28.17;17.37;;;;;;;0.41;67.80;101386.52;1738391;82;21109;-73
2022/12/31 06:52:20;;;;;;;28.62;18.62;;;;;;;0.38;67.94;101382.09;1738419;82;21629;-73
2022/12/31 06:54:47;;;;;;;26.77;17.98;;;;;;;0.37;68.03;101377.34;1738702;81;21011;-73
2022/12/31 06:57:15;;;;;;;25.82;18.17;;;;;;;0.32;68.07;101376.20;1738750;82;20978;-72
2022/12/31 06:59:43;;;;;;;25.77;17.80;;;;;;;0.26;68.26;101385.56;1738516;82;21791;-72
2022/12/31 07:02:31;;;;;;;27.00;17.67;;;;;;;0.26;68.47;101392.64;1738353;82;20947;-72
2022/12/31 07:05:12;;;;;;;24.92;17.17;;;;;;;0.28;68.64;101410.37;1738022;82;20955;-72
2022/12/31 07:07:56;;;;;;;29.10;18.55;;;;;;;0.31;68.87;101417.43;1738570;82;20964;-71
2022/12/31 07:10:44;;;;;;;29.67;20.08;;;;;;;0.35;69.07;101417.41;1738645;82;21066;-72
2022/12/31 07:14:02;;;;;;;25.82;17.73;;;;;;;0.41;69.27;101414.11;1737507;82;21233;-73
2022/12/31 07:17:05;;;;;;;27.30;17.55;;;;;;;0.50;69.47;101422.80;1738229;82;21521;-73
2022/12/31 07:19:49;;;;;;;29.75;18.95;;;;;;;0.62;69.73;101416.66;1738101;82;21016;-73
2022/12/31 07:22:17;;;;;;;32.28;20.27;;;;;;;0.68;69.88;101413.36;1738230;82;21034;-73
2022/12/31 07:24:44;;;;;;;28.90;19.32;;;;;;;0.72;70.10;101409.39;1738187;82;21070;-73
2022/12/31 07:27:44;;;;;;;29.65;19.42;;;;;;;0.80;70.29;101405.42;1738956;82;21155;-74
2022/12/31 07:30:21;;;;;;;34.38;20.80;;;;;;;0.87;70.44;101406.87;1738486;82;21145;-73
2022/12/31 07:33:44;;;;;;;33.83;22.20;;;;;;;1.00;70.69;101410.27;1738858;82;21034;-73
2022/12/31 07:36:39;;;;;;;34.08;22.02;;;;;;;1.10;70.86;101413.48;1739219;82;20971;-72
2022/12/31 07:39:17;;;;;;;34.20;22.15;;;;;;;1.25;71.01;101407.81;1709600;82;21078;-72
2022/12/31 07:42:08;;;;;;;36.08;23.22;;;;;;;1.42;71.17;101400.63;1738942;82;21277;-73
2022/12/31 07:45:27;;;;;;;35.45;22.48;;;;;;;1.65;71.33;101396.66;1724494;82;21463;-74
2022/12/31 07:47:55;;;;;;;37.40;23.95;;;;;;;1.90;71.46;101410.41;1704202;84;21139;-74
2022/12/31 07:50:22;;;;;;;39.83;24.52;;;;;;;2.19;71.52;101403.55;1719199;83;21036;-73
2022/12/31 07:52:50;;;;;;;35.38;23.52;;;;;;;2.40;71.62;101403.64;1773194;80;21164;-72
2022/12/31 07:55:16;;;;;;;36.70;24.07;;;;;;;2.63;71.71;101410.63;1791720;78;21157;-73
2022/12/31 07:58:04;;;;;;;36.23;24.27;;;;;;;2.82;71.77;101402.97;1792206;80;21478;-73
2022/12/31 08:00:31;;;;;;;36.33;23.92;;;;;;;3.03;71.85;101402.21;1792009;80;21106;-73
2022/12/31 08:03:06;;;;;;;34.33;23.05;;;;;;;3.25;71.83;101406.17;1786390;80;21454;-72
2022/12/31 08:05:54;;;;;;;34.33;23.52;;;;;;;3.35;71.70;101402.72;1779303;80;21067;-72
2022/12/31 08:08:32;;;;;;;32.80;24.10;;;;;;;3.44;71.65;101406.06;1778293;80;21404;-74
2022/12/31 08:11:28;;;;;;;35.38;24.70;;;;;;;3.54;71.65;101417.13;1780185;80;21076;-73
2022/12/31 08:13:56;;;;;;;33.10;22.95;;;;;;;3.67;71.69;101417.75;1780559;80;21537;-72
2022/12/31 08:16:23;;;;;;;29.30;21.87;;;;;;;3.78;71.64;101408.48;1711164;80;21174;-72
2022/12/31 08:18:50;;;;;;;31.10;21.62;;;;;;;3.90;71.68;101415.70;1781217;80;21189;-72
2022/12/31 08:21:32;;;;;;;30.77;21.95;;;;;;;4.03;71.66;101414.18;1780674;80;21124;-71
2022/12/31 08:24:26;;;;;;;30.37;22.50;;;;;;;4.16;71.67;101407.15;1780388;80;21573;-71
2022/12/31 08:27:30;;;;;;;32.13;22.05;;;;;;;4.28;71.60;101394.70;1780899;80;21043;-71
2022/12/31 08:30:05;;;;;;;30.32;21.42;;;;;;;4.41;71.66;101399.58;1780425;80;21134;-71
2022/12/31 08:32:47;;;;;;;31.25;21.90;;;;;;;4.60;71.69;101401.19;1791590;80;21046;-71
2022/12/31 08:35:55;;;;;;;28.32;20.68;;;;;;;4.76;71.72;101407.46;1791997;80;21922;-70
2022/12/31 08:39:07;;;;;;;28.67;20.97;;;;;;;4.90;71.75;101403.88;1791659;80;20986;-70
2022/12/31 08:41:44;;;;;;;;;;;;;;;5.10;71.84;101404.41;1762909;81;21128;-70
2022/12/31 08:44:41;;;;;;;31.37;23.27;;;;;;;5.33;71.87;101400.08;1760272;81;20185;-70
2022/12/31 08:47:34;;;;;;;33.00;23.45;;;;;;;5.46;71.79;101397.45;1760020;80;21123;-71
2022/12/31 08:50:01;;;;;;;37.75;24.92;;;;;;;5.62;71.67;101400.22;1783631;80;22376;-71
2022/12/31 08:52:29;;;;;;;32.95;23.77;;;;;;;5.73;71.65;101389.55;1791986;80;20959;-71
2022/12/31 08:54:57;;;;;;;33.13;23.60;;;;;;;5.88;71.64;101385.64;1781666;78;21059;-71
2022/12/31 08:57:58;;;;;;;31.45;23.05;;;;;;;6.01;71.58;101384.03;1780786;80;20976;-72
2022/12/31 09:00:25;;;;;;;32.95;22.65;;;;;;;6.13;71.49;101385.04;1780581;80;21003;-70
2022/12/31 09:03:26;;;;;;;32.25;23.40;;;;;;;6.31;71.43;101374.57;1749233;80;21220;-70
2022/12/31 09:06:20;;;;;;;31.35;24.50;;;;;;;6.46;71.30;101377.51;1780818;80;20936;-71
2022/12/31 09:09:08;;;;;;;33.10;24.47;;;;;;;6.62;71.24;101369.59;1773850;80;20992;-71
2022/12/31 09:12:10;;;;;;;30.60;23.42;;;;;;;6.81;71.13;101369.98;1780977;80;21522;-70
2022/12/31 09:15:05;;;;;;;32.23;23.83;;;;;;;6.96;70.89;101359.91;1753440;80;20999;-70
2022/12/31 09:17:46;;;;;;;33.60;24.85;;;;;;;7.14;70.70;101354.38;1780690;80;21230;-71
2022/12/31 09:20:29;;;;;;;30.52;22.77;;;;;;;7.31;70.54;101341.42;1780479;80;21529;-71
2022/12/31 09:22:57;;;;;;;30.88;23.12;;;;;;;7.45;70.24;101333.11;1780746;80;21040;-69
2022/12/31 09:25:25;;;;;;;34.35;24.70;;;;;;;7.55;69.83;101346.44;1780527;80;21019;-70
2022/12/31 09:28:19;;;;;;;32.63;23.65;;;;;;;7.60;69.50;101344.77;1781046;80;22059;-69
2022/12/31 09:31:01;;;;;;;;;;;;;;;7.68;69.26;101340.48;1762803;80;22282;-70
2022/12/31 09:33:57;;;;;;;33.48;23.55;;;;;;;7.77;68.88;101333.58;1757203;81;20186;-70
2022/12/31 09:36:44;;;;;;;31.77;23.10;;;;;;;7.85;68.66;101338.59;1757039;81;21054;-70
2022/12/31 09:39:42;;;;;;;31.07;22.48;;;;;;;7.89;68.39;101339.77;1757023;81;21059;-70
2022/12/31 09:43:05;;;;;;;29.98;21.80;;;;;;;7.93;68.24;101339.13;1756982;81;21064;-70
2022/12/31 09:46:04;;;;;;;29.25;21.25;;;;;;;8.05;68.19;101329.89;1783355;80;21516;-69
2022/12/31 09:48:56;;;;;;;30.35;22.05;;;;;;;8.22;68.06;101334.11;1792145;80;21014;-70
2022/12/31 09:51:34;;;;;;;28.02;20.92;;;;;;;8.35;67.98;101333.14;1791936;80;21054;-69
2022/12/31 09:54:24;;;;;;;30.05;21.62;;;;;;;8.51;67.78;101323.77;1792236;80;21078;-70
2022/12/31 09:57:21;;;;;;;27.50;20.52;;;;;;;8.63;67.49;101320.12;1784895;80;21074;-70
2022/12/31 10:00:19;;;;;;;28.20;20.80;;;;;;;8.75;67.06;101332.14;1793272;80;21156;-70
2022/12/31 10:03:27;;;;;;;28.83;21.10;;;;;;;8.84;66.63;101328.66;1782836;80;20945;-70
2022/12/31 10:06:17;;;;;;;29.37;20.97;;;;;;;8.92;66.24;101317.70;1780621;80;20992;-69
2022/12/31 10:09:29;;;;;;;28.57;20.95;;;;;;;8.98;65.79;101315.95;1780957;80;21091;-70
2022/12/31 10:12:24;;;;;;;28.95;21.60;;;;;;;9.00;65.53;101310.70;1781053;80;20944;-71
2022/12/31 10:15:06;;;;;;;28.45;22.22;;;;;;;9.04;65.32;101303.86;1780397;80;21172;-71
2022/12/31 10:17:59;;;;;;;28.27;21.62;;;;;;;9.09;65.13;101295.20;1780624;80;20984;-70
2022/12/31 10:20:34;;;;;;;28.55;20.90;;;;;;;9.13;64.82;101289.17;1779973;80;21432;-71
2022/12/31 10:23:35;;;;;;;29.57;21.35;;;;;;;9.16;64.77;101281.25;1780404;80;21557;-70
2022/12/31 10:26:38;;;;;;;28.38;21.40;;;;;;;9.23;64.60;101278.48;1779692;80;20999;-71
2022/12/31 10:29:33;;;;;;;28.77;20.88;;;;;;;9.29;64.39;101276.23;1787479;80;21529;-69
2022/12/31 10:32:14;;;;;;;28.98;21.33;;;;;;;9.36;64.21;101267.06;1791892;80;21438;-71
2022/12/31 10:35:10;;;;;;;30.43;21.70;;;;;;;9.47;63.88;101269.97;1791700;80;20966;-71
2022/12/31 10:38:06;;;;;;;28.67;20.72;;;;;;;9.53;63.73;101255.17;1760748;81;21035;-71
2022/12/31 10:41:13;;;;;;;27.60;20.75;;;;;;;9.57;63.44;101256.86;1744079;81;20947;-71
2022/12/31 10:44:14;;;;;;;28.90;20.82;;;;;;;9.62;63.22;101251.65;1760766;81;21255;-70
2022/12/31 10:47:26;;;;;;;27.35;20.48;;;;;;;9.64;62.95;101245.57;1760733;81;21031;-71
2022/12/31 10:50:17;;;;;;;27.27;20.20;;;;;;;9.69;62.83;101248.86;1761165;81;21652;-71
2022/12/31 10:53:27;;;;;;;24.87;19.27;;;;;;;9.74;62.66;101244.45;1770182;78;21396;-71
2022/12/31 10:56:08;;;;;;;25.30;18.20;;;;;;;9.76;62.39;101248.20;1791835;80;21066;-71
2022/12/31 10:58:41;;;;;;;28.17;20.97;;;;;;;9.76;62.19;101246.87;1790212;80;21450;-71
2022/12/31 11:01:36;;;;;;;26.40;19.60;;;;;;;9.75;62.04;101239.39;1788957;80;20991;-71
2022/12/31 11:04:39;;;;;;;25.17;18.90;;;;;;;9.78;62.00;101232.78;1778700;80;21584;-72
2022/12/31 11:07:46;;;;;;;28.45;19.62;;;;;;;9.80;61.88;101232.81;1767776;80;21105;-70
2022/12/31 11:10:41;;;;;;;24.87;18.15;;;;;;;9.84;61.85;101229.18;1779721;80;20983;-71
2022/12/31 11:13:37;;;;;;;22.87;16.95;;;;;;;9.88;61.77;101235.66;1792049;80;21540;-71
2022/12/31 11:16:09;;;;;;;26.25;18.00;;;;;;;9.90;61.59;101229.55;1785003;80;21049;-71
2022/12/31 11:18:44;;;;;;;24.85;18.07;;;;;;;9.91;61.56;101221.05;1791801;80;21007;-71
2022/12/31 11:21:51;;;;;;;23.52;17.60;;;;;;;9.94;61.40;101220.58;1780344;78;21160;-71
2022/12/31 11:24:42;;;;;;;25.02;16.85;;;;;;;9.93;61.37;101213.59;1774895;80;21051;-71
2022/12/31 11:27:43;;;;;;;26.05;17.02;;;;;;;9.96;61.40;101208.59;1782187;80;21203;-71
2022/12/31 11:30:52;;;;;;;24.37;16.05;;;;;;;10.03;61.32;101212.46;1791621;80;21450;-71
2022/12/31 11:34:10;;;;;;;18.40;13.00;;;;;;;10.10;61.22;101202.45;1789833;80;21029;-70
2022/12/31 11:36:54;;;;;;;17.85;11.48;;;;;;;10.16;60.93;101189.49;1768996;80;21031;-71
2022/12/31 11:39:41;;;;;;;16.02;11.28;;;;;;;10.18;60.68;101206.63;1789951;80;21002;-71
2022/12/31 11:42:45;;;;;;;14.30;9.80;;;;;;;10.17;60.42;101215.66;1792278;80;21123;-71
2022/12/31 11:45:58;;;;;;;16.07;9.93;;;;;;;10.09;60.19;101217.66;1780069;80;21558;-71
2022/12/31 11:48:37;;;;;;;14.18;10.13;;;;;;;10.05;60.21;101224.53;1780541;80;20944;-70
2022/12/31 11:51:42;;;;;;;15.43;10.05;;;;;;;10.08;60.21;101209.91;1777449;80;21481;-71
2022/12/31 11:54:49;;;;;;;14.98;10.00;;;;;;;10.12;60.19;101208.38;1761284;80;21485;-70
2022/12/31 11:57:30;;;;;;;14.45;10.43;;;;;;;10.12;59.83;101192.36;1774214;80;21797;-70
2022/12/31 12:00:10;;;;;;;15.93;10.70;;;;;;;10.09;59.67;101193.64;1776524;80;20995;-71
2022/12/31 12:02:59;;;;;;;14.43;10.05;;;;;;;10.10;59.58;101189.11;1785740;80;21656;-72
2022/12/31 12:05:27;;;;;;;16.15;10.40;;;;;;;10.12;59.55;101167.53;1775295;80;20979;-69
2022/12/31 12:07:53;;;;;;;17.27;10.93;;;;;;;10.13;59.40;101175.81;1792008;80;21110;-70